sensor_id;sensor_type;location;lat;lon;timestamp;pressure;altitude;pressure_sealevel;temperature;humidity
58769;BME280;44536;47.474;19.056;2023-01-30T00:00:22;101124.22;;;-4.17;86.98
58769;BME280;44536;47.474;19.056;2023-01-30T00:03:25;101122.50;;;-4.22;87.78
58769;BME280;44536;47.474;19.056;2023-01-30T00:06:28;101125.94;;;-4.20;87.29
58769;BME280;44536;47.474;19.056;2023-01-30T00:09:30;101115.59;;;-4.19;87.46
58769;BME280;44536;47.474;19.056;2023-01-30T00:12:33;101117.34;;;-4.27;88.25
58769;BME280;44536;47.474;19.056;2023-01-30T00:15:35;101110.47;;;-4.34;89.59
58769;BME280;44536;47.474;19.056;2023-01-30T00:18:39;101108.72;;;-4.30;88.85
58769;BME280;44536;47.474;19.056;2023-01-30T00:21:41;101101.81;;;-4.27;88.50
58769;BME280;44536;47.474;19.056;2023-01-30T00:24:44;101098.37;;;-4.37;89.29
58769;BME280;44536;47.474;19.056;2023-01-30T00:27:46;101095.78;;;-4.34;89.79
58769;BME280;44536;47.474;19.056;2023-01-30T00:30:53;101106.16;;;-4.37;90.50
58769;BME280;44536;47.474;19.056;2023-01-30T00:33:57;101100.12;;;-4.39;90.16
58769;BME280;44536;47.474;19.056;2023-01-30T00:36:59;101087.19;;;-4.43;90.31
58769;BME280;44536;47.474;19.056;2023-01-30T00:40:10;101096.66;;;-4.36;90.80
58769;BME280;44536;47.474;19.056;2023-01-30T00:43:15;101084.59;;;-4.46;90.76
58769;BME280;44536;47.474;19.056;2023-01-30T00:46:36;101092.34;;;-4.39;90.20
58769;BME280;44536;47.474;19.056;2023-01-30T00:50:05;101089.78;;;-4.45;91.40
58769;BME280;44536;47.474;19.056;2023-01-30T00:53:14;101091.47;;;-4.31;90.76
58769;BME280;44536;47.474;19.056;2023-01-30T00:56:17;101090.63;;;-4.40;91.39
58769;BME280;44536;47.474;19.056;2023-01-30T00:59:19;101079.41;;;-4.39;92.05
58769;BME280;44536;47.474;19.056;2023-01-30T01:02:22;101082.03;;;-4.52;91.78
58769;BME280;44536;47.474;19.056;2023-01-30T01:05:25;101078.56;;;-4.42;91.96
58769;BME280;44536;47.474;19.056;2023-01-30T01:08:27;101066.53;;;-4.57;93.03
58769;BME280;44536;47.474;19.056;2023-01-30T01:11:30;101073.44;;;-4.59;92.86
58769;BME280;44536;47.474;19.056;2023-01-30T01:14:32;101058.75;;;-4.54;91.63
58769;BME280;44536;47.474;19.056;2023-01-30T01:17:35;101063.94;;;-4.55;92.24
58769;BME280;44536;47.474;19.056;2023-01-30T01:20:37;101050.13;;;-4.60;93.12
58769;BME280;44536;47.474;19.056;2023-01-30T01:23:40;101053.56;;;-4.52;92.17
58769;BME280;44536;47.474;19.056;2023-01-30T01:26:43;101051.81;;;-4.46;91.51
58769;BME280;44536;47.474;19.056;2023-01-30T01:29:46;101055.28;;;-4.48;92.33
58769;BME280;44536;47.474;19.056;2023-01-30T01:32:49;101045.78;;;-4.46;92.55
58769;BME280;44536;47.474;19.056;2023-01-30T01:35:55;101045.75;;;-4.42;91.84
58769;BME280;44536;47.474;19.056;2023-01-30T01:38:57;101048.34;;;-4.36;91.71
58769;BME280;44536;47.474;19.056;2023-01-30T01:42:00;101042.28;;;-4.30;90.74
58769;BME280;44536;47.474;19.056;2023-01-30T01:48:25;101038.88;;;-4.41;91.48
58769;BME280;44536;47.474;19.056;2023-01-30T01:51:33;101036.28;;;-4.43;92.51
58769;BME280;44536;47.474;19.056;2023-01-30T01:54:45;101028.50;;;-4.44;91.88
58769;BME280;44536;47.474;19.056;2023-01-30T01:57:56;101018.19;;;-4.52;91.85
58769;BME280;44536;47.474;19.056;2023-01-30T02:01:00;101014.78;;;-4.64;92.83
58769;BME280;44536;47.474;19.056;2023-01-30T02:04:04;101010.47;;;-4.66;93.19
58769;BME280;44536;47.474;19.056;2023-01-30T02:07:09;101008.75;;;-4.60;93.23
58769;BME280;44536;47.474;19.056;2023-01-30T02:10:16;100998.38;;;-4.59;93.42
58769;BME280;44536;47.474;19.056;2023-01-30T02:13:21;100998.38;;;-4.62;93.46
58769;BME280;44536;47.474;19.056;2023-01-30T02:16:24;100988.91;;;-4.61;93.64
58769;BME280;44536;47.474;19.056;2023-01-30T02:19:45;100979.44;;;-4.66;94.11
58769;BME280;44536;47.474;19.056;2023-01-30T02:40:00;100963.88;;;-4.62;94.82
58769;BME280;44536;47.474;19.056;2023-01-30T02:43:12;100961.28;;;-4.58;93.79
58769;BME280;44536;47.474;19.056;2023-01-30T02:46:22;100957.84;;;-4.61;94.82
58769;BME280;44536;47.474;19.056;2023-01-30T02:49:48;100944.06;;;-4.63;94.08
58769;BME280;44536;47.474;19.056;2023-01-30T02:52:51;100937.16;;;-4.61;93.80
58769;BME280;44536;47.474;19.056;2023-01-30T02:55:54;100938.00;;;-4.58;93.67
58769;BME280;44536;47.474;19.056;2023-01-30T02:59:01;100926.00;;;-4.68;94.21
58769;BME280;44536;47.474;19.056;2023-01-30T03:05:29;100921.72;;;-4.75;94.97
58769;BME280;44536;47.474;19.056;2023-01-30T03:09:05;100921.75;;;-4.84;95.50
58769;BME280;44536;47.474;19.056;2023-01-30T03:12:21;100923.47;;;-4.85;96.32
58769;BME280;44536;47.474;19.056;2023-01-30T03:15:33;100918.34;;;-4.91;97.13
58769;BME280;44536;47.474;19.056;2023-01-30T03:18:40;100921.78;;;-4.92;97.03
58769;BME280;44536;47.474;19.056;2023-01-30T03:21:44;100918.34;;;-4.95;97.20
58769;BME280;44536;47.474;19.056;2023-01-30T03:24:48;100928.69;;;-4.95;97.87
58769;BME280;44536;47.474;19.056;2023-01-30T03:27:54;100920.94;;;-4.95;97.72
58769;BME280;44536;47.474;19.056;2023-01-30T03:30:57;100921.81;;;-5.00;97.55
58769;BME280;44536;47.474;19.056;2023-01-30T03:33:59;100903.69;;;-4.93;97.49
58769;BME280;44536;47.474;19.056;2023-01-30T03:37:03;100914.06;;;-5.01;97.72
58769;BME280;44536;47.474;19.056;2023-01-30T03:40:09;100902.00;;;-5.02;99.27
58769;BME280;44536;47.474;19.056;2023-01-30T03:43:11;100895.09;;;-5.02;98.43
58769;BME280;44536;47.474;19.056;2023-01-30T03:46:14;100889.03;;;-4.90;99.12
58769;BME280;44536;47.474;19.056;2023-01-30T03:49:16;100891.63;;;-4.94;98.40
58769;BME280;44536;47.474;19.056;2023-01-30T03:52:21;100891.66;;;-4.99;98.59
58769;BME280;44536;47.474;19.056;2023-01-30T03:55:24;100890.81;;;-5.04;99.10
58769;BME280;44536;47.474;19.056;2023-01-30T03:58:27;100893.38;;;-5.01;97.55
58769;BME280;44536;47.474;19.056;2023-01-30T04:01:30;100885.59;;;-4.96;98.00
58769;BME280;44536;47.474;19.056;2023-01-30T04:04:33;100890.78;;;-5.00;98.92
58769;BME280;44536;47.474;19.056;2023-01-30T04:07:36;100889.06;;;-5.02;98.02
58769;BME280;44536;47.474;19.056;2023-01-30T04:10:39;100881.31;;;-5.01;98.04
58769;BME280;44536;47.474;19.056;2023-01-30T04:13:41;100878.72;;;-4.99;98.76
58769;BME280;44536;47.474;19.056;2023-01-30T04:16:44;100874.41;;;-5.02;98.56
58769;BME280;44536;47.474;19.056;2023-01-30T04:19:48;100874.44;;;-5.08;98.53
58769;BME280;44536;47.474;19.056;2023-01-30T04:22:53;100871.00;;;-5.10;98.99
58769;BME280;44536;47.474;19.056;2023-01-30T04:25:56;100873.56;;;-5.07;99.21
58769;BME280;44536;47.474;19.056;2023-01-30T04:28:59;100874.44;;;-5.12;99.30
58769;BME280;44536;47.474;19.056;2023-01-30T04:32:02;100859.81;;;-5.12;99.33
58769;BME280;44536;47.474;19.056;2023-01-30T04:35:05;100858.09;;;-5.16;100.00
58769;BME280;44536;47.474;19.056;2023-01-30T04:38:08;100852.91;;;-5.16;100.00
58769;BME280;44536;47.474;19.056;2023-01-30T04:41:11;100855.50;;;-5.16;100.00
58769;BME280;44536;47.474;19.056;2023-01-30T04:44:13;100846.94;;;-5.21;100.00
58769;BME280;44536;47.474;19.056;2023-01-30T04:47:16;100840.00;;;-5.14;100.00
58769;BME280;44536;47.474;19.056;2023-01-30T04:50:19;100833.09;;;-5.14;100.00
58769;BME280;44536;47.474;19.056;2023-01-30T04:53:23;100825.34;;;-5.15;100.00
58769;BME280;44536;47.474;19.056;2023-01-30T04:56:25;100822.75;;;-5.11;100.00
58769;BME280;44536;47.474;19.056;2023-01-30T04:59:28;100831.38;;;-5.18;100.00
58769;BME280;44536;47.474;19.056;2023-01-30T05:02:32;100830.44;;;-5.02;100.00
58769;BME280;44536;47.474;19.056;2023-01-30T05:05:35;100824.41;;;-4.99;100.00
58769;BME280;44536;47.474;19.056;2023-01-30T05:08:37;100822.72;;;-5.09;100.00
58769;BME280;44536;47.474;19.056;2023-01-30T05:11:40;100814.97;;;-5.06;100.00
58769;BME280;44536;47.474;19.056;2023-01-30T05:14:44;100812.38;;;-5.08;100.00
58769;BME280;44536;47.474;19.056;2023-01-30T05:17:48;100825.31;;;-5.11;100.00
58769;BME280;44536;47.474;19.056;2023-01-30T05:20:50;100828.75;;;-5.10;100.00
58769;BME280;44536;47.474;19.056;2023-01-30T05:23:54;100820.16;;;-5.09;100.00
58769;BME280;44536;47.474;19.056;2023-01-30T05:26:57;100823.56;;;-5.06;100.00
58769;BME280;44536;47.474;19.056;2023-01-30T05:29:59;100811.50;;;-5.05;100.00
58769;BME280;44536;47.474;19.056;2023-01-30T05:33:01;100813.22;;;-5.01;100.00
58769;BME280;44536;47.474;19.056;2023-01-30T05:36:05;100812.38;;;-5.09;100.00
58769;BME280;44536;47.474;19.056;2023-01-30T05:39:07;100810.69;;;-5.15;100.00
58769;BME280;44536;47.474;19.056;2023-01-30T05:42:10;100807.25;;;-5.15;100.00
58769;BME280;44536;47.474;19.056;2023-01-30T05:45:12;100808.12;;;-5.18;100.00
58769;BME280;44536;47.474;19.056;2023-01-30T05:48:14;100802.09;;;-5.18;100.00
58769;BME280;44536;47.474;19.056;2023-01-30T05:51:17;100802.94;;;-5.18;100.00
58769;BME280;44536;47.474;19.056;2023-01-30T05:54:20;100803.81;;;-5.17;100.00
58769;BME280;44536;47.474;19.056;2023-01-30T05:57:22;100807.19;;;-5.06;100.00
58769;BME280;44536;47.474;19.056;2023-01-30T06:00:25;100805.47;;;-5.03;100.00
58769;BME280;44536;47.474;19.056;2023-01-30T06:03:28;100801.12;;;-5.01;100.00
58769;BME280;44536;47.474;19.056;2023-01-30T06:06:30;100802.84;;;-4.98;100.00
58769;BME280;44536;47.474;19.056;2023-01-30T06:09:33;100812.34;;;-4.98;100.00
58769;BME280;44536;47.474;19.056;2023-01-30T06:12:35;100808.84;;;-4.93;100.00
58769;BME280;44536;47.474;19.056;2023-01-30T06:15:38;100803.69;;;-4.94;100.00
58769;BME280;44536;47.474;19.056;2023-01-30T06:18:41;100804.53;;;-4.92;100.00
58769;BME280;44536;47.474;19.056;2023-01-30T06:21:45;100810.56;;;-4.92;100.00
58769;BME280;44536;47.474;19.056;2023-01-30T06:24:47;100806.25;;;-4.88;100.00
58769;BME280;44536;47.474;19.056;2023-01-30T06:27:49;100807.94;;;-4.83;100.00
58769;BME280;44536;47.474;19.056;2023-01-30T06:30:52;100799.28;;;-4.76;100.00
58769;BME280;44536;47.474;19.056;2023-01-30T06:33:55;100802.63;;;-4.66;100.00
58769;BME280;44536;47.474;19.056;2023-01-30T06:36:57;100823.28;;;-4.60;100.00
58769;BME280;44536;47.474;19.056;2023-01-30T06:40:00;100814.66;;;-4.57;99.75
58769;BME280;44536;47.474;19.056;2023-01-30T06:43:03;100801.62;;;-4.47;99.28
58769;BME280;44536;47.474;19.056;2023-01-30T06:46:05;100795.50;;;-4.37;98.92
58769;BME280;44536;47.474;19.056;2023-01-30T06:49:08;100779.84;;;-4.20;98.45
58769;BME280;44536;47.474;19.056;2023-01-30T06:52:11;100783.09;;;-4.01;97.72
58769;BME280;44536;47.474;19.056;2023-01-30T06:55:16;100792.31;;;-3.73;97.23
58769;BME280;44536;47.474;19.056;2023-01-30T06:58:20;100790.31;;;-3.52;94.73
58769;BME280;44536;47.474;19.056;2023-01-30T07:01:22;100793.56;;;-3.35;93.27
58769;BME280;44536;47.474;19.056;2023-01-30T07:04:26;100800.44;;;-3.31;91.99
58769;BME280;44536;47.474;19.056;2023-01-30T07:07:29;100785.53;;;-3.15;91.98
58769;BME280;44536;47.474;19.056;2023-01-30T07:10:32;100777.59;;;-3.05;90.63
58769;BME280;44536;47.474;19.056;2023-01-30T07:13:34;100774.56;;;-2.74;90.05
58769;BME280;44536;47.474;19.056;2023-01-30T07:16:37;100783.00;;;-2.60;89.23
58769;BME280;44536;47.474;19.056;2023-01-30T07:19:39;100776.31;;;-2.76;89.40
58769;BME280;44536;47.474;19.056;2023-01-30T07:22:42;100776.78;;;-2.51;89.38
58769;BME280;44536;47.474;19.056;2023-01-30T07:25:44;100774.22;;;-2.54;89.14
58769;BME280;44536;47.474;19.056;2023-01-30T07:28:46;100780.16;;;-2.46;88.99
58769;BME280;44536;47.474;19.056;2023-01-30T07:31:50;100773.25;;;-2.47;89.05
58769;BME280;44536;47.474;19.056;2023-01-30T07:34:52;100769.75;;;-2.45;89.02
58769;BME280;44536;47.474;19.056;2023-01-30T07:37:55;100759.84;;;-2.21;88.74
58769;BME280;44536;47.474;19.056;2023-01-30T07:40:59;100764.16;;;-2.20;88.40
58769;BME280;44536;47.474;19.056;2023-01-30T07:44:01;100766.47;;;-2.05;87.54
58769;BME280;44536;47.474;19.056;2023-01-30T07:47:04;100766.28;;;-1.96;88.65
58769;BME280;44536;47.474;19.056;2023-01-30T07:50:07;100763.31;;;-1.76;86.73
58769;BME280;44536;47.474;19.056;2023-01-30T07:53:12;100759.56;;;-1.60;87.16
58769;BME280;44536;47.474;19.056;2023-01-30T07:56:19;100746.22;;;-1.45;85.71
58769;BME280;44536;47.474;19.056;2023-01-30T07:59:25;100754.63;;;-1.32;85.32
58769;BME280;44536;47.474;19.056;2023-01-30T08:02:29;100756.81;;;-1.55;85.88
58769;BME280;44536;47.474;19.056;2023-01-30T08:05:31;100754.34;;;-1.20;85.14
58769;BME280;44536;47.474;19.056;2023-01-30T08:08:35;100755.94;;;-1.13;84.46
58769;BME280;44536;47.474;19.056;2023-01-30T08:11:38;100745.75;;;-1.23;84.55
58769;BME280;44536;47.474;19.056;2023-01-30T08:14:41;100733.84;;;-1.34;85.09
58769;BME280;44536;47.474;19.056;2023-01-30T08:17:52;100736.41;;;-1.32;85.71
58769;BME280;44536;47.474;19.056;2023-01-30T08:21:02;100713.72;;;-1.25;85.40
58769;BME280;44536;47.474;19.056;2023-01-30T08:24:06;100693.66;;;-1.20;85.05
58769;BME280;44536;47.474;19.056;2023-01-30T08:27:08;100676.19;;;-1.15;85.12
58769;BME280;44536;47.474;19.056;2023-01-30T08:30:12;100679.97;;;-1.28;86.02
58769;BME280;44536;47.474;19.056;2023-01-30T08:33:14;100678.06;;;-1.20;85.56
58769;BME280;44536;47.474;19.056;2023-01-30T08:36:17;100683.63;;;-1.00;85.02
58769;BME280;44536;47.474;19.056;2023-01-30T08:39:19;100687.16;;;-1.03;85.18
58769;BME280;44536;47.474;19.056;2023-01-30T08:42:22;100674.25;;;-1.06;85.24
58769;BME280;44536;47.474;19.056;2023-01-30T08:45:24;100684.78;;;-1.12;86.13
58769;BME280;44536;47.474;19.056;2023-01-30T08:48:27;100679.56;;;-0.75;85.17
58769;BME280;44536;47.474;19.056;2023-01-30T08:51:41;100674.16;;;-0.67;84.44
58769;BME280;44536;47.474;19.056;2023-01-30T08:54:43;100683.34;;;-0.52;84.17
58769;BME280;44536;47.474;19.056;2023-01-30T08:57:47;100678.22;;;-0.23;82.58
58769;BME280;44536;47.474;19.056;2023-01-30T09:00:50;100675.22;;;-0.42;83.74
58769;BME280;44536;47.474;19.056;2023-01-30T09:03:52;100679.78;;;-0.50;84.08
58769;BME280;44536;47.474;19.056;2023-01-30T09:06:55;100680.94;;;-0.27;83.64
58769;BME280;44536;47.474;19.056;2023-01-30T09:09:57;100679.41;;;-0.36;83.56
58769;BME280;44536;47.474;19.056;2023-01-30T09:13:00;100678.50;;;-0.01;82.57
58769;BME280;44536;47.474;19.056;2023-01-30T09:16:04;100670.50;;;-0.27;83.13
58769;BME280;44536;47.474;19.056;2023-01-30T09:19:07;100677.91;;;-0.12;82.88
58769;BME280;44536;47.474;19.056;2023-01-30T09:22:09;100662.97;;;0.24;82.38
58769;BME280;44536;47.474;19.056;2023-01-30T09:25:12;100656.63;;;0.62;82.25
58769;BME280;44536;47.474;19.056;2023-01-30T09:28:14;100662.88;;;0.84;80.30
58769;BME280;44536;47.474;19.056;2023-01-30T09:31:17;100648.41;;;0.74;79.76
58769;BME280;44536;47.474;19.056;2023-01-30T09:34:19;100662.00;;;0.85;79.30
58769;BME280;44536;47.474;19.056;2023-01-30T09:37:22;100641.53;;;0.72;79.58
58769;BME280;44536;47.474;19.056;2023-01-30T09:40:27;100638.72;;;0.78;80.26
58769;BME280;44536;47.474;19.056;2023-01-30T09:46:47;100630.56;;;0.60;80.47
58769;BME280;44536;47.474;19.056;2023-01-30T09:50:22;100620.28;;;0.56;81.99
58769;BME280;44536;47.474;19.056;2023-01-30T09:56:52;100596.75;;;0.57;81.35
58769;BME280;44536;47.474;19.056;2023-01-30T10:03:21;100597.91;;;0.49;82.45
58769;BME280;44536;47.474;19.056;2023-01-30T10:06:27;100583.09;;;0.21;83.31
58769;BME280;44536;47.474;19.056;2023-01-30T10:26:25;100544.50;;;2.28;78.90
58769;BME280;44536;47.474;19.056;2023-01-30T10:29:59;100547.28;;;2.89;75.06
58769;BME280;44536;47.474;19.056;2023-01-30T10:33:17;100530.31;;;3.96;72.04
58769;BME280;44536;47.474;19.056;2023-01-30T10:36:50;100522.41;;;3.78;69.13
58769;BME280;44536;47.474;19.056;2023-01-30T10:40:06;100516.03;;;2.85;72.31
58769;BME280;44536;47.474;19.056;2023-01-30T10:43:24;100512.53;;;2.64;73.45
58769;BME280;44536;47.474;19.056;2023-01-30T10:49:52;100490.72;;;2.43;74.19
58769;BME280;44536;47.474;19.056;2023-01-30T10:53:11;100484.94;;;2.35;74.25
58769;BME280;44536;47.474;19.056;2023-01-30T10:56:28;100471.44;;;2.02;75.93
58769;BME280;44536;47.474;19.056;2023-01-30T11:03:43;100433.87;;;2.05;76.42
58769;BME280;44536;47.474;19.056;2023-01-30T11:06:49;100430.03;;;1.91;77.25
58769;BME280;44536;47.474;19.056;2023-01-30T11:09:56;100430.56;;;1.99;76.82
58769;BME280;44536;47.474;19.056;2023-01-30T11:13:18;100415.09;;;1.72;78.30
58769;BME280;44536;47.474;19.056;2023-01-30T11:16:21;100410.41;;;1.58;78.77
58769;BME280;44536;47.474;19.056;2023-01-30T11:19:30;100396.31;;;1.40;79.72
58769;BME280;44536;47.474;19.056;2023-01-30T11:22:35;100387.44;;;1.66;79.88
58769;BME280;44536;47.474;19.056;2023-01-30T11:25:47;100391.47;;;1.75;79.92
58769;BME280;44536;47.474;19.056;2023-01-30T11:28:54;100384.84;;;1.88;80.44
58769;BME280;44536;47.474;19.056;2023-01-30T11:32:04;100385.38;;;1.96;80.29
58769;BME280;44536;47.474;19.056;2023-01-30T11:38:19;100380.94;;;1.98;80.80
58769;BME280;44536;47.474;19.056;2023-01-30T11:41:22;100356.75;;;1.93;82.29
58769;BME280;44536;47.474;19.056;2023-01-30T11:44:32;100353.66;;;1.83;81.70
58769;BME280;44536;47.474;19.056;2023-01-30T11:47:35;100362.78;;;1.73;82.67
58769;BME280;44536;47.474;19.056;2023-01-30T11:50:46;100339.31;;;1.72;82.74
58769;BME280;44536;47.474;19.056;2023-01-30T11:54:12;100348.84;;;1.73;83.13
58769;BME280;44536;47.474;19.056;2023-01-30T11:57:16;100338.59;;;2.51;88.84
58769;BME280;44536;47.474;19.056;2023-01-30T12:00:22;100347.22;;;2.12;82.31
58769;BME280;44536;47.474;19.056;2023-01-30T12:03:26;100332.44;;;1.69;83.84
58769;BME280;44536;47.474;19.056;2023-01-30T12:06:33;100323.47;;;1.54;84.45
58769;BME280;44536;47.474;19.056;2023-01-30T12:09:37;100316.91;;;1.44;84.48
58769;BME280;44536;47.474;19.056;2023-01-30T12:12:54;100328.84;;;1.28;84.81
58769;BME280;44536;47.474;19.056;2023-01-30T12:19:30;100315.47;;;1.14;85.64
58769;BME280;44536;47.474;19.056;2023-01-30T12:26:04;100313.19;;;1.28;84.88
58769;BME280;44536;47.474;19.056;2023-01-30T12:32:59;100285.59;;;1.21;85.18
58769;BME280;44536;47.474;19.056;2023-01-30T12:43:22;100250.25;;;1.34;85.03
58769;BME280;44536;47.474;19.056;2023-01-30T12:50:16;100256.03;;;1.42;85.88
58769;BME280;44536;47.474;19.056;2023-01-30T12:56:59;100269.56;;;1.52;82.68
58769;BME280;44536;47.474;19.056;2023-01-30T13:07:30;100268.97;;;1.65;82.01
58769;BME280;44536;47.474;19.056;2023-01-30T13:13:53;100237.22;;;1.54;83.34
58769;BME280;44536;47.474;19.056;2023-01-30T13:24:17;100215.00;;;1.64;82.01
58769;BME280;44536;47.474;19.056;2023-01-30T13:27:23;100208.34;;;1.57;82.25
58769;BME280;44536;47.474;19.056;2023-01-30T13:30:28;100212.59;;;1.60;82.02
58769;BME280;44536;47.474;19.056;2023-01-30T13:33:35;100197.50;;;1.66;81.59
58769;BME280;44536;47.474;19.056;2023-01-30T13:36:50;100203.91;;;1.59;82.60
58769;BME280;44536;47.474;19.056;2023-01-30T13:39:57;100212.94;;;1.73;81.83
58769;BME280;44536;47.474;19.056;2023-01-30T13:43:05;100207.25;;;1.83;81.20
58769;BME280;44536;47.474;19.056;2023-01-30T13:46:21;100223.84;;;1.82;80.70
58769;BME280;44536;47.474;19.056;2023-01-30T13:52:45;100208.75;;;1.69;80.02
58769;BME280;44536;47.474;19.056;2023-01-30T14:09:30;100193.19;;;2.06;77.04
58769;BME280;44536;47.474;19.056;2023-01-30T14:12:42;100188.94;;;2.04;77.40
58769;BME280;44536;47.474;19.056;2023-01-30T14:18:58;100191.84;;;2.16;77.38
58769;BME280;44536;47.474;19.056;2023-01-30T14:22:04;100194.44;;;1.97;77.50
58769;BME280;44536;47.474;19.056;2023-01-30T14:31:48;100188.81;;;1.86;79.37
58769;BME280;44536;47.474;19.056;2023-01-30T14:38:08;100198.88;;;1.95;80.33
58769;BME280;44536;47.474;19.056;2023-01-30T14:41:26;100204.03;;;1.97;80.86
58769;BME280;44536;47.474;19.056;2023-01-30T14:44:57;100199.22;;;1.88;82.07
58769;BME280;44536;47.474;19.056;2023-01-30T14:48:40;100210.97;;;1.78;82.97
58769;BME280;44536;47.474;19.056;2023-01-30T14:51:46;100201.88;;;1.66;83.01
58769;BME280;44536;47.474;19.056;2023-01-30T14:54:49;100206.19;;;1.67;84.58
58769;BME280;44536;47.474;19.056;2023-01-30T14:57:57;100195.63;;;1.50;85.20
58769;BME280;44536;47.474;19.056;2023-01-30T15:01:01;100194.41;;;1.57;84.70
58769;BME280;44536;47.474;19.056;2023-01-30T15:04:04;100200.78;;;1.51;84.85
58769;BME280;44536;47.474;19.056;2023-01-30T15:07:12;100199.87;;;1.52;84.89
58769;BME280;44536;47.474;19.056;2023-01-30T15:21:01;100199.94;;;1.29;87.11
58769;BME280;44536;47.474;19.056;2023-01-30T15:31:04;100195.16;;;1.18;88.65
58769;BME280;44536;47.474;19.056;2023-01-30T15:34:18;100198.91;;;1.11;88.06
58769;BME280;44536;47.474;19.056;2023-01-30T15:37:35;100202.06;;;1.19;88.27
58769;BME280;44536;47.474;19.056;2023-01-30T15:40:39;100207.31;;;1.19;88.29
58769;BME280;44536;47.474;19.056;2023-01-30T15:47:41;100212.88;;;1.10;90.36
58769;BME280;44536;47.474;19.056;2023-01-30T15:50:52;100221.75;;;1.06;90.23
58769;BME280;44536;47.474;19.056;2023-01-30T15:53:57;100219.97;;;1.07;90.69
58769;BME280;44536;47.474;19.056;2023-01-30T15:57:00;100226.13;;;1.06;91.04
58769;BME280;44536;47.474;19.056;2023-01-30T16:00:07;100224.81;;;0.95;94.03
58769;BME280;44536;47.474;19.056;2023-01-30T16:03:19;100220.91;;;0.84;96.16
58769;BME280;44536;47.474;19.056;2023-01-30T16:06:36;100221.00;;;0.81;96.56
58769;BME280;44536;47.474;19.056;2023-01-30T16:09:38;100223.34;;;0.65;98.49
58769;BME280;44536;47.474;19.056;2023-01-30T16:12:41;100228.34;;;0.71;98.47
58769;BME280;44536;47.474;19.056;2023-01-30T16:16:03;100215.00;;;0.55;99.89
58769;BME280;44536;47.474;19.056;2023-01-30T16:19:18;100203.37;;;0.64;100.00
58769;BME280;44536;47.474;19.056;2023-01-30T16:22:22;100199.19;;;0.60;100.00
58769;BME280;44536;47.474;19.056;2023-01-30T16:25:26;100215.56;;;0.63;100.00
58769;BME280;44536;47.474;19.056;2023-01-30T16:28:31;100217.97;;;0.70;100.00
58769;BME280;44536;47.474;19.056;2023-01-30T16:31:36;100219.09;;;0.62;100.00
58769;BME280;44536;47.474;19.056;2023-01-30T16:34:39;100223.94;;;0.50;100.00
58769;BME280;44536;47.474;19.056;2023-01-30T16:37:42;100234.31;;;0.51;100.00
58769;BME280;44536;47.474;19.056;2023-01-30T16:40:45;100241.53;;;0.45;100.00
58769;BME280;44536;47.474;19.056;2023-01-30T16:44:13;100242.59;;;0.39;100.00
58769;BME280;44536;47.474;19.056;2023-01-30T16:50:22;100243.03;;;0.27;100.00
58769;BME280;44536;47.474;19.056;2023-01-30T16:53:27;100233.72;;;0.20;100.00
58769;BME280;44536;47.474;19.056;2023-01-30T16:56:32;100233.87;;;0.15;100.00
58769;BME280;44536;47.474;19.056;2023-01-30T16:59:36;100237.72;;;0.05;100.00
58769;BME280;44536;47.474;19.056;2023-01-30T17:02:39;100235.81;;;0.10;100.00
58769;BME280;44536;47.474;19.056;2023-01-30T17:05:43;100222.97;;;0.04;100.00
58769;BME280;44536;47.474;19.056;2023-01-30T17:08:51;100229.63;;;0.13;100.00
58769;BME280;44536;47.474;19.056;2023-01-30T17:11:55;100242.94;;;0.05;100.00
58769;BME280;44536;47.474;19.056;2023-01-30T17:18:15;100235.91;;;0.07;100.00
58769;BME280;44536;47.474;19.056;2023-01-30T17:21:19;100238.56;;;0.06;100.00
58769;BME280;44536;47.474;19.056;2023-01-30T17:24:23;100205.69;;;0.02;100.00
58769;BME280;44536;47.474;19.056;2023-01-30T17:27:27;100211.59;;;0.07;100.00
58769;BME280;44536;47.474;19.056;2023-01-30T17:30:30;100221.69;;;0.16;100.00
58769;BME280;44536;47.474;19.056;2023-01-30T17:33:33;100218.81;;;0.23;100.00
58769;BME280;44536;47.474;19.056;2023-01-30T17:36:35;100214.56;;;0.21;100.00
58769;BME280;44536;47.474;19.056;2023-01-30T17:39:38;100212.75;;;0.23;100.00
58769;BME280;44536;47.474;19.056;2023-01-30T17:42:40;100208.84;;;0.35;100.00
58769;BME280;44536;47.474;19.056;2023-01-30T17:45:42;100214.59;;;0.44;100.00
58769;BME280;44536;47.474;19.056;2023-01-30T17:48:45;100220.75;;;0.65;100.00
58769;BME280;44536;47.474;19.056;2023-01-30T17:51:48;100206.66;;;0.69;100.00
58769;BME280;44536;47.474;19.056;2023-01-30T17:54:51;100200.88;;;0.84;100.00
58769;BME280;44536;47.474;19.056;2023-01-30T17:57:55;100208.66;;;0.86;100.00
58769;BME280;44536;47.474;19.056;2023-01-30T18:00:57;100200.00;;;1.06;100.00
58769;BME280;44536;47.474;19.056;2023-01-30T18:04:00;100202.00;;;1.21;100.00
58769;BME280;44536;47.474;19.056;2023-01-30T18:07:03;100208.69;;;1.28;100.00
58769;BME280;44536;47.474;19.056;2023-01-30T18:10:14;100213.63;;;1.36;100.00
58769;BME280;44536;47.474;19.056;2023-01-30T18:13:17;100208.19;;;1.40;100.00
58769;BME280;44536;47.474;19.056;2023-01-30T18:16:23;100206.72;;;1.55;100.00
58769;BME280;44536;47.474;19.056;2023-01-30T18:19:27;100217.75;;;1.61;100.00
58769;BME280;44536;47.474;19.056;2023-01-30T18:22:30;100211.59;;;1.62;100.00
58769;BME280;44536;47.474;19.056;2023-01-30T18:25:33;100214.22;;;1.62;100.00
58769;BME280;44536;47.474;19.056;2023-01-30T18:28:35;100199.25;;;1.66;100.00
58769;BME280;44536;47.474;19.056;2023-01-30T18:31:39;100207.75;;;1.71;100.00
58769;BME280;44536;47.474;19.056;2023-01-30T18:34:42;100207.88;;;1.68;100.00
58769;BME280;44536;47.474;19.056;2023-01-30T18:37:44;100212.34;;;1.66;100.00
58769;BME280;44536;47.474;19.056;2023-01-30T18:40:47;100216.66;;;1.67;100.00